Time;durP1;ratioP1;P1;durP2;ratioP2;P2;SDS_P1;SDS_P2;PMS_P1;PMS_P2;Temp;Humidity;BMP_temperature;BMP_pressure;BME280_temperature;BME280_humidity;BME280_pressure;Samples;Min_cycle;Max_cycle;Signal;HPM_P1;HPM_P2
2022/09/16 00:01:20;;;;;;;3.60;0.70;;;13.30;99.90;;;;;;5140262;27;20042;-79
2022/09/16 00:03:47;;;;;;;5.47;0.90;;;13.40;99.90;;;;;;5140309;27;20096;-79
2022/09/16 00:06:18;;;;;;;5.00;1.25;;;13.40;99.90;;;;;;5139937;27;20057;-79
2022/09/16 00:08:44;;;;;;;5.32;0.60;;;13.50;99.90;;;;;;5158791;27;20052;-79
2022/09/16 00:11:10;;;;;;;7.07;1.25;;;13.50;99.90;;;;;;5140031;27;20061;-80
2022/09/16 00:13:38;;;;;;;5.00;1.20;;;13.50;99.90;;;;;;5139940;27;20034;-80
2022/09/16 00:16:15;;;;;;;10.75;0.98;;;13.50;99.90;;;;;;5139718;27;20075;-79
2022/09/16 00:18:41;;;;;;;9.38;1.17;;;13.60;99.90;;;;;;5139782;27;20539;-80
2022/09/16 00:21:10;;;;;;;6.00;0.60;;;13.60;99.90;;;;;;5139692;27;20042;-80
2022/09/16 00:23:36;;;;;;;6.80;1.45;;;13.60;99.90;;;;;;5139911;27;20090;-80
2022/09/16 00:26:02;;;;;;;5.50;1.77;;;13.60;99.90;;;;;;5139747;27;20054;-81
2022/09/16 00:28:30;;;;;;;8.38;0.80;;;13.60;99.90;;;;;;5139507;27;20047;-79
2022/09/16 00:31:00;;;;;;;7.65;1.10;;;13.70;99.90;;;;;;5139523;27;20078;-80
2022/09/16 00:33:26;;;;;;;7.10;1.10;;;13.70;99.90;;;;;;5139508;27;20038;-80
2022/09/16 00:36:02;;;;;;;5.38;0.90;;;13.70;99.90;;;;;;5158106;27;20042;-81
2022/09/16 00:38:28;;;;;;;4.57;0.45;;;13.60;99.90;;;;;;5139520;27;20074;-79
2022/09/16 00:40:54;;;;;;;5.57;0.70;;;13.60;99.90;;;;;;5139464;27;20078;-81
2022/09/16 00:43:19;;;;;;;4.35;0.70;;;13.60;99.90;;;;;;5157997;27;20477;-82
2022/09/16 00:45:50;;;;;;;4.07;0.60;;;13.50;99.90;;;;;;5139166;27;20042;-81
2022/09/16 00:48:21;;;;;;;5.03;0.70;;;13.60;99.90;;;;;;5139546;27;20568;-81
2022/09/16 00:50:52;;;;;;;7.13;0.77;;;13.50;99.90;;;;;;5139582;27;20056;-80
2022/09/16 00:53:23;;;;;;;11.93;1.08;;;13.60;99.90;;;;;;5157778;27;20042;-80
2022/09/16 00:55:50;;;;;;;10.23;1.08;;;13.60;99.90;;;;;;5139237;27;20042;-83
2022/09/16 00:58:34;;;;;;;7.65;0.93;;;13.70;99.90;;;;;;5157726;27;20046;-82
2022/09/16 01:01:01;;;;;;;6.30;1.20;;;13.60;99.90;;;;;;5139042;27;20035;-81
2022/09/16 01:03:28;;;;;;;5.68;0.60;;;13.60;99.90;;;;;;5139028;27;20046;-81
2022/09/16 01:05:54;;;;;;;7.07;0.90;;;13.60;99.90;;;;;;5135122;27;20416;-80
2022/09/16 01:08:20;;;;;;;9.95;1.02;;;13.50;99.90;;;;;;5136811;27;20552;-79
2022/09/16 01:10:46;;;;;;;9.52;1.08;;;13.40;99.90;;;;;;5136571;27;20378;-79
2022/09/16 01:13:13;;;;;;;8.38;1.00;;;13.30;99.90;;;;;;5135289;27;20405;-79
2022/09/16 01:15:44;;;;;;;9.13;1.27;;;13.20;99.90;;;;;;5135385;27;20431;-79
2022/09/16 01:18:30;;;;;;;9.70;0.98;;;13.20;99.90;;;;;;5135472;27;20548;-79
2022/09/16 01:21:15;;;;;;;6.32;1.00;;;13.30;99.90;;;;;;5135406;27;20058;-79
2022/09/16 01:24:10;;;;;;;10.93;1.50;;;13.40;99.90;;;;;;5135460;27;20043;-79
2022/09/16 01:26:51;;;;;;;15.82;1.23;;;13.40;99.90;;;;;;5135142;27;20116;-81
2022/09/16 01:29:40;;;;;;;7.18;1.17;;;13.50;99.90;;;;;;5132531;27;20481;-79
2022/09/16 01:32:31;;;;;;;14.15;2.00;;;13.50;99.90;;;;;;5115731;28;20051;-80
2022/09/16 01:35:11;;;;;;;9.38;1.48;;;13.50;99.90;;;;;;5114382;28;20050;-79
2022/09/16 01:37:39;;;;;;;16.88;1.90;;;13.50;99.90;;;;;;5114218;28;20055;-80
2022/09/16 01:40:30;;;;;;;10.75;1.08;;;13.50;99.90;;;;;;5114314;28;20047;-79
2022/09/16 01:43:05;;;;;;;6.63;1.10;;;13.60;99.90;;;;;;5114315;28;20545;-80
2022/09/16 01:45:40;;;;;;;9.45;1.42;;;13.60;99.90;;;;;;5114209;28;20096;-80
2022/09/16 01:48:26;;;;;;;5.68;0.85;;;13.50;99.90;;;;;;5114027;28;20047;-79
2022/09/16 01:50:54;;;;;;;6.60;1.42;;;13.50;99.90;;;;;;5114062;28;20545;-80
2022/09/16 01:53:33;;;;;;;7.30;0.90;;;13.50;99.90;;;;;;5114018;28;20490;-80
2022/09/16 01:56:17;;;;;;;7.32;0.70;;;13.50;99.90;;;;;;5114070;28;20134;-81
2022/09/16 01:59:01;;;;;;;7.47;1.00;;;13.60;99.90;;;;;;5113948;28;20052;-80
2022/09/16 02:01:33;;;;;;;10.43;1.00;;;13.60;99.90;;;;;;5114345;28;20108;-80
2022/09/16 02:04:15;;;;;;;5.20;1.00;;;13.60;99.90;;;;;;5114210;28;20047;-81
2022/09/16 02:06:42;;;;;;;11.40;2.10;;;13.60;99.90;;;;;;5129691;27;20478;-81
2022/09/16 02:09:14;;;;;;;20.42;2.30;;;13.60;99.90;;;;;;5117053;27;20085;-79
2022/09/16 02:11:45;;;;;;;21.98;2.60;;;13.50;99.90;;;;;;5117328;27;20049;-78
2022/09/16 02:14:19;;;;;;;12.63;1.27;;;13.30;99.90;;;;;;5116907;27;20082;-77
2022/09/16 02:16:48;;;;;;;5.32;1.52;;;12.90;99.90;;;;;;5116870;27;20122;-77
2022/09/16 02:19:23;;;;;;;11.10;1.58;;;12.60;99.90;;;;;;5117030;27;20055;-78
2022/09/16 02:21:52;;;;;;;15.75;1.92;;;12.40;99.90;;;;;;5116761;27;20367;-78
2022/09/16 02:24:20;;;;;;;10.00;1.00;;;12.30;99.90;;;;;;5117137;27;20055;-78
2022/09/16 02:26:59;;;;;;;12.77;1.30;;;12.20;99.90;;;;;;5116783;27;20047;-77
2022/09/16 02:29:38;;;;;;;11.98;1.60;;;12.10;99.90;;;;;;5117368;27;20529;-77
2022/09/16 02:32:07;;;;;;;11.30;1.58;;;12.20;99.90;;;;;;5116676;27;20047;-78
2022/09/16 02:34:40;;;;;;;6.75;1.20;;;12.20;99.90;;;;;;5135138;27;20046;-79
2022/09/16 02:37:14;;;;;;;9.10;0.75;;;12.30;99.90;;;;;;5116921;27;20042;-78
2022/09/16 02:39:45;;;;;;;11.15;1.33;;;12.50;99.90;;;;;;5117531;27;20047;-79
2022/09/16 02:42:10;;;;;;;7.57;0.90;;;12.50;99.90;;;;;;5116750;27;20035;-80
2022/09/16 02:44:36;;;;;;;6.32;0.70;;;12.60;99.90;;;;;;5116473;27;20394;-80
2022/09/16 02:47:32;;;;;;;7.07;1.05;;;12.70;99.90;;;;;;5116358;27;20092;-79
2022/09/16 02:50:10;;;;;;;7.35;0.88;;;12.70;99.90;;;;;;5116773;28;20054;-79
2022/09/16 02:52:45;;;;;;;8.30;1.27;;;12.70;99.90;;;;;;5116342;27;20434;-79
2022/09/16 02:55:32;;;;;;;13.00;1.75;;;12.80;99.90;;;;;;5116395;27;20072;-80
2022/09/16 02:57:58;;;;;;;4.72;1.17;;;12.80;99.90;;;;;;5116467;28;20051;-80
2022/09/16 03:00:24;;;;;;;10.50;1.60;;;12.80;99.90;;;;;;5134481;27;20095;-79
2022/09/16 03:02:52;;;;;;;9.52;1.63;;;12.80;99.90;;;;;;5116204;28;20111;-80
2022/09/16 03:05:18;;;;;;;6.97;0.82;;;12.90;99.90;;;;;;5116165;28;20059;-79
2022/09/16 03:07:44;;;;;;;7.07;0.82;;;12.80;99.90;;;;;;5116225;28;20051;-81
2022/09/16 03:10:11;;;;;;;12.88;1.55;;;12.80;99.90;;;;;;5116282;28;20043;-80
2022/09/16 03:12:40;;;;;;;11.20;1.42;;;12.90;99.90;;;;;;5116504;28;20118;-79
2022/09/16 03:15:28;;;;;;;9.30;1.67;;;12.90;99.90;;;;;;5116191;28;20058;-82
2022/09/16 03:18:09;;;;;;;11.68;1.92;;;13.00;99.90;;;;;;5116754;28;20043;-80
2022/09/16 03:20:58;;;;;;;10.45;1.50;;;13.00;99.90;;;;;;5116477;28;20050;-82
2022/09/16 03:23:29;;;;;;;9.77;0.68;;;13.00;99.90;;;;;;5115964;28;20079;-81
2022/09/16 03:26:14;;;;;;;10.15;1.27;;;13.00;99.90;;;;;;5116086;27;20043;-80
2022/09/16 03:29:17;;;;;;;9.55;1.77;;;13.00;99.90;;;;;;5119865;27;20047;-82
2022/09/16 03:31:43;;;;;;;10.55;1.80;;;13.10;99.90;;;;;;5120292;27;20053;-81
2022/09/16 03:34:19;;;;;;;4.82;0.98;;;13.10;99.90;;;;;;5120071;27;20134;-80
2022/09/16 03:36:55;;;;;;;11.57;1.35;;;13.10;99.90;;;;;;5120412;27;20146;-80
2022/09/16 03:39:21;;;;;;;9.93;1.10;;;13.10;99.90;;;;;;5138597;27;20075;-81
2022/09/16 03:41:47;;;;;;;5.03;0.93;;;13.20;99.90;;;;;;5120312;27;20477;-80
2022/09/16 03:44:13;;;;;;;6.22;1.00;;;13.10;99.90;;;;;;5138137;27;20038;-80
2022/09/16 03:46:42;;;;;;;9.15;0.85;;;13.10;99.90;;;;;;5119748;27;20042;-82
2022/09/16 03:49:07;;;;;;;4.75;0.57;;;13.20;99.90;;;;;;5120033;27;20047;-82
2022/09/16 03:51:33;;;;;;;4.30;0.70;;;13.20;99.90;;;;;;5120060;27;20396;-81
2022/09/16 03:53:59;;;;;;;11.40;1.48;;;13.20;99.90;;;;;;5120105;27;20043;-81
2022/09/16 03:56:24;;;;;;;7.35;1.27;;;13.10;99.90;;;;;;5119643;27;20059;-83
2022/09/16 03:58:50;;;;;;;7.53;0.80;;;13.10;99.90;;;;;;5119513;27;20085;-82
2022/09/16 04:01:16;;;;;;;6.45;0.90;;;13.10;99.90;;;;;;5119538;27;20135;-82
2022/09/16 04:03:42;;;;;;;9.45;1.05;;;13.20;99.90;;;;;;5119563;27;20066;-79
2022/09/16 04:06:08;;;;;;;8.05;1.02;;;13.20;99.90;;;;;;5119261;27;20111;-82
2022/09/16 04:08:34;;;;;;;8.82;1.10;;;13.30;99.90;;;;;;5119501;27;20196;-80
2022/09/16 04:11:04;;;;;;;12.25;1.58;;;13.30;99.90;;;;;;5119699;27;20065;-80
2022/09/16 04:13:32;;;;;;;12.20;1.13;;;13.40;99.90;;;;;;5119281;27;20050;-82
2022/09/16 04:15:58;;;;;;;8.98;1.55;;;13.40;99.90;;;;;;5119258;27;20047;-81
2022/09/16 04:18:23;;;;;;;16.92;1.15;;;13.40;99.90;;;;;;5119279;27;20047;-82
2022/09/16 04:20:49;;;;;;;5.90;0.77;;;13.30;99.90;;;;;;5137729;27;20039;-81
2022/09/16 04:23:15;;;;;;;7.43;1.10;;;13.30;99.90;;;;;;5119312;27;20071;-81
2022/09/16 04:25:41;;;;;;;13.00;1.05;;;13.40;99.90;;;;;;5119237;27;20131;-82
2022/09/16 04:28:07;;;;;;;8.18;1.00;;;13.30;99.90;;;;;;5137415;27;20054;-81
2022/09/16 04:30:36;;;;;;;6.47;0.80;;;13.40;99.90;;;;;;5119272;27;20389;-84
2022/09/16 04:33:01;;;;;;;14.38;2.65;;;13.40;99.90;;;;;;5118999;27;20047;-81
2022/09/16 04:35:27;;;;;;;9.18;1.25;;;13.40;99.90;;;;;;5118982;27;20096;-82
2022/09/16 04:37:53;;;;;;;9.50;1.27;;;13.40;99.90;;;;;;5118460;27;20043;-82
2022/09/16 04:40:18;;;;;;;10.05;1.25;;;13.40;99.90;;;;;;5118821;27;20505;-83
2022/09/16 04:42:50;;;;;;;11.27;1.58;;;13.40;99.90;;;;;;5118705;27;20035;-82
2022/09/16 04:45:17;;;;;;;9.48;0.73;;;13.40;99.90;;;;;;5118649;27;20039;-81
2022/09/16 04:47:43;;;;;;;6.30;1.05;;;13.40;99.90;;;;;;5118562;27;20087;-82
2022/09/16 04:50:10;;;;;;;8.75;1.15;;;13.40;99.90;;;;;;5118734;27;20077;-81
2022/09/16 04:52:35;;;;;;;10.52;0.93;;;13.40;99.90;;;;;;5119021;27;20043;-82
2022/09/16 04:55:01;;;;;;;7.20;1.05;;;13.40;99.90;;;;;;5118570;27;20146;-83
2022/09/16 04:57:31;;;;;;;12.15;1.52;;;13.50;99.90;;;;;;5118473;27;20047;-81
2022/09/16 04:59:57;;;;;;;9.27;1.05;;;13.40;99.90;;;;;;5136969;27;20046;-81
2022/09/16 05:02:23;;;;;;;9.30;1.33;;;13.30;99.90;;;;;;5118271;27;20055;-81
2022/09/16 05:04:49;;;;;;;5.45;0.73;;;13.20;99.90;;;;;;5136772;27;20095;-80
2022/09/16 05:07:15;;;;;;;7.32;1.20;;;13.10;99.90;;;;;;5136131;27;20117;-82
2022/09/16 05:09:40;;;;;;;4.70;0.57;;;13.00;99.90;;;;;;5116984;27;20047;-81
2022/09/16 05:12:07;;;;;;;6.70;1.20;;;13.00;99.90;;;;;;5117720;27;20512;-81
2022/09/16 05:14:32;;;;;;;9.30;1.00;;;13.00;99.90;;;;;;5118263;27;20061;-81
2022/09/16 05:16:58;;;;;;;5.50;0.80;;;13.10;99.90;;;;;;5117963;27;20427;-82
2022/09/16 05:19:24;;;;;;;9.38;1.02;;;13.10;99.90;;;;;;5118297;27;20074;-82
2022/09/16 05:21:49;;;;;;;11.48;1.25;;;13.10;99.90;;;;;;5118111;27;20466;-81
2022/09/16 05:24:15;;;;;;;8.27;1.33;;;13.10;99.90;;;;;;5118490;27;20084;-82
2022/09/16 05:26:42;;;;;;;10.25;1.38;;;13.20;99.90;;;;;;5136340;27;20039;-81
2022/09/16 05:29:11;;;;;;;8.88;0.85;;;13.20;99.90;;;;;;5117663;27;20495;-80
2022/09/16 05:31:39;;;;;;;11.05;1.38;;;13.30;99.90;;;;;;5117814;27;20088;-82
2022/09/16 05:34:09;;;;;;;10.23;1.05;;;13.30;99.90;;;;;;5117918;27;20458;-83
2022/09/16 05:36:38;;;;;;;12.07;1.10;;;13.30;99.90;;;;;;5117788;27;20069;-81
2022/09/16 05:39:05;;;;;;;10.10;0.77;;;13.40;99.90;;;;;;5117466;27;20122;-81
2022/09/16 05:41:31;;;;;;;11.65;1.50;;;13.50;99.90;;;;;;5117668;27;20054;-82
2022/09/16 05:44:01;;;;;;;5.00;0.95;;;13.50;99.90;;;;;;5117421;27;20031;-84
2022/09/16 05:46:27;;;;;;;5.78;0.57;;;13.50;99.90;;;;;;5117317;27;20042;-81
2022/09/16 05:48:53;;;;;;;8.93;2.20;;;13.60;99.90;;;;;;5117344;27;20104;-80
2022/09/16 05:51:24;;;;;;;14.68;1.27;;;13.60;99.90;;;;;;5116790;27;20118;-82
2022/09/16 05:53:52;;;;;;;6.88;1.10;;;13.60;99.90;;;;;;5117429;27;20050;-83
2022/09/16 05:56:24;;;;;;;8.95;1.10;;;13.60;99.90;;;;;;5117348;27;20478;-80
2022/09/16 05:58:52;;;;;;;7.30;1.15;;;13.60;99.90;;;;;;5117384;27;20074;-89
2022/09/16 06:01:20;;;;;;;8.57;1.30;;;13.60;99.90;;;;;;5117067;27;20108;-81
2022/09/16 06:03:47;;;;;;;10.95;2.25;;;13.60;99.90;;;;;;5116846;27;20071;-81
2022/09/16 06:06:17;;;;;;;9.25;1.45;;;13.60;99.90;;;;;;5116710;27;20055;-81
2022/09/16 06:08:42;;;;;;;13.70;1.60;;;13.60;99.90;;;;;;5117165;27;20460;-88
2022/09/16 06:11:10;;;;;;;11.80;1.17;;;13.60;99.90;;;;;;5135481;27;20486;-82
2022/09/16 06:13:37;;;;;;;7.07;0.65;;;13.70;99.90;;;;;;5116767;27;20051;-81
2022/09/16 06:16:04;;;;;;;9.15;0.80;;;13.80;99.90;;;;;;5116838;27;20066;-81
2022/09/16 06:18:30;;;;;;;9.75;1.10;;;13.90;99.90;;;;;;5116881;27;20119;-81
2022/09/16 06:20:59;;;;;;;7.90;1.00;;;14.00;99.90;;;;;;5117193;27;20130;-81
2022/09/16 06:23:25;;;;;;;6.80;0.90;;;14.00;99.90;;;;;;5135331;27;20047;-82
2022/09/16 06:26:15;;;;;;;7.65;1.30;;;14.00;99.90;;;;;;5116530;27;20378;-82
2022/09/16 06:28:41;;;;;;;9.73;1.40;;;14.20;99.90;;;;;;5107132;27;20494;-82
2022/09/16 06:31:11;;;;;;;9.77;1.50;;;14.30;99.90;;;;;;5116775;27;20065;-81
2022/09/16 06:33:40;;;;;;;10.65;1.70;;;14.40;99.90;;;;;;5116486;27;20035;-81
2022/09/16 06:36:16;;;;;;;13.07;1.60;;;14.40;99.90;;;;;;5116505;27;20485;-80
2022/09/16 06:38:42;;;;;;;12.60;2.22;;;14.30;99.90;;;;;;5116644;27;20398;-81
2022/09/16 06:41:09;;;;;;;11.82;1.77;;;14.30;99.90;;;;;;5134904;27;20043;-81
2022/09/16 06:43:38;;;;;;;10.23;1.00;;;14.20;99.90;;;;;;5116612;27;20055;-81
2022/09/16 06:46:15;;;;;;;8.48;0.90;;;14.20;99.90;;;;;;5116379;27;20096;-81
2022/09/16 06:48:42;;;;;;;9.02;1.10;;;14.20;99.90;;;;;;5116228;28;20535;-82
2022/09/16 06:51:13;;;;;;;10.23;1.92;;;14.10;99.90;;;;;;5116159;27;20051;-80
2022/09/16 06:53:40;;;;;;;12.30;1.25;;;14.10;99.90;;;;;;5139200;27;20122;-80
2022/09/16 06:56:10;;;;;;;10.63;1.50;;;14.20;99.90;;;;;;5136633;27;20099;-78
2022/09/16 06:58:36;;;;;;;7.15;1.20;;;14.40;99.90;;;;;;5136738;27;20050;-80
2022/09/16 07:01:10;;;;;;;5.95;1.10;;;14.40;99.90;;;;;;5155099;27;20034;-81
2022/09/16 07:03:41;;;;;;;8.50;1.30;;;14.40;99.90;;;;;;5155255;27;20083;-79
2022/09/16 07:06:08;;;;;;;9.43;2.30;;;14.40;99.90;;;;;;5136134;27;20133;-81
2022/09/16 07:08:35;;;;;;;10.32;1.88;;;14.30;99.90;;;;;;5155169;27;20042;-81
2022/09/16 07:11:03;;;;;;;11.57;1.42;;;14.20;99.90;;;;;;5155114;27;20085;-77
2022/09/16 07:13:29;;;;;;;14.48;1.75;;;14.10;99.90;;;;;;5136780;27;20397;-80
2022/09/16 07:16:02;;;;;;;11.73;1.73;;;14.10;99.90;;;;;;5136508;27;20046;-80
2022/09/16 07:18:29;;;;;;;12.00;1.58;;;14.10;99.90;;;;;;5136362;27;20072;-80
2022/09/16 07:21:05;;;;;;;11.40;1.55;;;14.10;99.90;;;;;;5136665;27;20046;-80
2022/09/16 07:23:32;;;;;;;15.70;2.80;;;14.20;99.90;;;;;;5136249;27;20043;-80
2022/09/16 07:26:06;;;;;;;7.60;1.92;;;14.20;99.90;;;;;;5136088;27;20047;-82
2022/09/16 07:28:32;;;;;;;12.57;1.52;;;14.30;99.90;;;;;;5136428;27;20038;-79
2022/09/16 07:31:07;;;;;;;7.45;1.35;;;14.40;99.90;;;;;;5136219;27;20051;-85
2022/09/16 07:33:39;;;;;;;11.95;1.50;;;14.50;99.90;;;;;;5136462;27;20058;-79
2022/09/16 07:36:06;;;;;;;8.63;1.33;;;14.60;99.90;;;;;;5136717;27;20441;-80
2022/09/16 07:38:32;;;;;;;6.05;1.10;;;14.60;99.90;;;;;;5136308;27;20039;-85
2022/09/16 07:41:25;;;;;;;6.32;1.33;;;14.70;99.90;;;;;;5136068;27;20058;-79
2022/09/16 07:43:53;;;;;;;13.50;2.15;;;14.80;99.90;;;;;;5132130;27;20527;-81
2022/09/16 07:46:19;;;;;;;10.20;1.10;;;14.90;99.90;;;;;;5135985;27;20071;-80
2022/09/16 07:48:46;;;;;;;8.95;1.33;;;14.90;99.90;;;;;;5136108;27;20400;-81
2022/09/16 07:51:15;;;;;;;7.28;0.98;;;15.00;99.90;;;;;;5136350;27;20091;-81
2022/09/16 07:53:41;;;;;;;7.90;1.20;;;15.00;99.90;;;;;;5135987;27;20091;-80
2022/09/16 07:56:09;;;;;;;9.75;1.52;;;15.10;99.90;;;;;;5136119;27;20039;-82
2022/09/16 07:58:37;;;;;;;9.25;1.20;;;15.10;99.90;;;;;;5154546;27;20046;-80
2022/09/16 08:01:04;;;;;;;7.13;1.00;;;15.20;99.90;;;;;;5148106;27;20098;-82
2022/09/16 08:03:31;;;;;;;8.88;1.38;;;15.20;99.90;;;;;;5134073;27;20039;-81
2022/09/16 08:06:06;;;;;;;9.45;1.27;;;15.30;99.90;;;;;;5115244;28;20134;-79
2022/09/16 08:08:32;;;;;;;13.18;1.30;;;15.40;99.90;;;;;;5115239;28;20043;-81
2022/09/16 08:10:59;;;;;;;7.80;0.90;;;15.40;99.90;;;;;;5115240;28;20055;-85
2022/09/16 08:13:26;;;;;;;6.60;1.10;;;15.50;99.90;;;;;;5116687;27;20063;-81
2022/09/16 08:15:53;;;;;;;12.60;1.83;;;15.50;99.90;;;;;;5118858;27;20054;-83
2022/09/16 08:18:19;;;;;;;10.68;2.28;;;15.60;99.90;;;;;;5118906;27;20550;-82
2022/09/16 08:20:45;;;;;;;11.98;1.50;;;15.60;99.90;;;;;;5118777;27;20085;-81
2022/09/16 08:23:11;;;;;;;15.05;2.13;;;15.50;99.90;;;;;;5118873;27;20063;-83
2022/09/16 08:25:37;;;;;;;13.63;1.83;;;15.40;99.90;;;;;;5101714;27;20051;-84
2022/09/16 08:28:03;;;;;;;14.48;1.92;;;15.40;99.90;;;;;;5149849;27;20035;-81
2022/09/16 08:30:32;;;;;;;10.10;1.35;;;15.40;99.90;;;;;;5157795;27;20469;-80
2022/09/16 08:32:58;;;;;;;8.68;1.50;;;15.60;99.90;;;;;;5139388;27;20134;-80
2022/09/16 08:35:25;;;;;;;6.40;1.13;;;15.70;99.90;;;;;;5157737;27;20537;-81
2022/09/16 08:37:52;;;;;;;7.72;1.30;;;15.70;99.90;;;;;;5137520;27;20088;-82
2022/09/16 08:40:22;;;;;;;7.57;1.10;;;15.70;99.90;;;;;;5138602;27;20038;-85
2022/09/16 08:43:02;;;;;;;10.68;1.80;;;15.80;99.90;;;;;;5139334;27;20042;-85
2022/09/16 08:45:35;;;;;;;9.00;1.38;;;15.90;99.90;;;;;;5139182;27;20388;-82
2022/09/16 08:48:21;;;;;;;15.02;1.40;;;15.90;99.90;;;;;;5137890;27;20133;-80
2022/09/16 08:50:49;;;;;;;10.40;1.55;;;16.00;99.90;;;;;;5136151;27;20477;-81
2022/09/16 08:53:27;;;;;;;9.10;1.33;;;15.90;99.90;;;;;;5138779;27;20087;-81
2022/09/16 08:55:56;;;;;;;5.20;1.30;;;16.00;99.90;;;;;;5138857;27;20039;-81
2022/09/16 08:58:25;;;;;;;12.52;1.48;;;16.00;99.90;;;;;;5138786;27;20050;-83
2022/09/16 09:00:59;;;;;;;7.10;1.85;;;16.00;99.90;;;;;;5139143;27;20130;-84
2022/09/16 09:03:38;;;;;;;9.10;1.17;;;16.00;99.90;;;;;;5157539;27;20046;-81
2022/09/16 09:06:20;;;;;;;8.52;1.20;;;16.00;99.90;;;;;;5138550;27;20512;-81
2022/09/16 09:08:53;;;;;;;9.30;1.38;;;16.00;99.90;;;;;;5137634;27;20058;-83
2022/09/16 09:11:43;;;;;;;7.03;1.40;;;16.10;99.90;;;;;;5138505;27;20446;-83
2022/09/16 09:14:33;;;;;;;8.82;1.42;;;16.20;99.90;;;;;;5138698;27;20043;-83
2022/09/16 09:17:08;;;;;;;9.30;1.30;;;16.40;99.90;;;;;;5138438;27;20058;-84
2022/09/16 09:20:00;;;;;;;8.57;1.50;;;16.10;99.90;;;;;;5138303;27;20548;-82
2022/09/16 09:22:28;;;;;;;8.02;1.30;;;15.40;99.90;;;;;;5138419;27;20050;-79
2022/09/16 09:25:33;;;;;;;15.00;1.33;;;14.90;99.90;;;;;;5138586;27;20043;-79
2022/09/16 09:28:15;;;;;;;11.32;1.70;;;14.60;99.90;;;;;;5138310;27;20039;-79
2022/09/16 09:30:49;;;;;;;12.93;1.57;;;14.40;99.90;;;;;;5131716;27;20042;-80
2022/09/16 09:33:20;;;;;;;12.63;1.85;;;14.50;99.90;;;;;;5134557;27;20520;-81
2022/09/16 09:36:21;;;;;;;6.15;0.82;;;14.50;99.90;;;;;;5117541;27;20051;-81
2022/09/16 09:38:56;;;;;;;7.57;1.10;;;14.70;99.90;;;;;;5117656;27;20061;-79
2022/09/16 09:41:35;;;;;;;6.82;1.63;;;14.70;99.90;;;;;;5117338;27;20047;-80
2022/09/16 09:44:25;;;;;;;8.27;1.10;;;14.80;99.90;;;;;;5117220;27;20043;-81
2022/09/16 09:46:59;;;;;;;8.05;1.40;;;14.90;99.90;;;;;;5115431;27;20568;-83
2022/09/16 09:49:49;;;;;;;6.20;0.75;;;15.20;99.90;;;;;;5115865;27;20431;-81
2022/09/16 09:52:40;;;;;;;6.22;0.93;;;15.00;99.90;;;;;;5117098;27;20039;-81
2022/09/16 09:55:18;;;;;;;13.63;1.58;;;15.10;99.90;;;;;;5116888;27;20096;-82
2022/09/16 09:58:07;;;;;;;9.10;1.05;;;15.10;99.90;;;;;;5117254;27;20097;-82
2022/09/16 10:00:33;;;;;;;9.35;1.10;;;15.30;99.90;;;;;;5116962;27;20122;-81
2022/09/16 10:03:10;;;;;;;5.28;1.10;;;15.40;99.90;;;;;;5116444;27;20130;-89
2022/09/16 10:05:35;;;;;;;11.80;1.85;;;15.50;99.90;;;;;;5116442;27;20051;-80
2022/09/16 10:08:20;;;;;;;8.95;1.77;;;15.70;99.90;;;;;;5116835;27;20051;-80
2022/09/16 10:10:54;;;;;;;12.55;3.33;;;15.70;99.90;;;;;;5116778;27;20058;-79
2022/09/16 10:13:24;;;;;;;10.85;1.88;;;15.70;99.90;;;;;;5116967;27;20383;-79
2022/09/16 10:15:53;;;;;;;10.20;2.28;;;15.60;99.90;;;;;;5116736;27;20066;-79
2022/09/16 10:18:31;;;;;;;9.45;2.28;;;15.70;99.90;;;;;;5116878;27;20043;-79
2022/09/16 10:21:14;;;;;;;6.05;1.58;;;15.80;99.90;;;;;;5116787;27;20082;-79
2022/09/16 10:23:40;;;;;;;;;;;16.00;99.90;;;;;;5116992;27;20081;-81
2022/09/16 10:26:18;;;;;;;9.07;1.20;;;16.20;99.90;;;;;;5116194;27;19959;-82
2022/09/16 10:28:53;;;;;;;7.50;1.40;;;16.30;99.90;;;;;;5116824;27;20047;-80
2022/09/16 10:31:19;;;;;;;10.32;2.38;;;16.50;99.90;;;;;;5116707;27;20110;-82
2022/09/16 10:33:44;;;;;;;9.60;1.23;;;16.40;99.90;;;;;;5135254;27;20444;-83
2022/09/16 10:36:22;;;;;;;13.40;2.20;;;16.50;99.90;;;;;;5116127;27;20050;-82
2022/09/16 10:38:59;;;;;;;10.75;1.50;;;16.50;99.90;;;;;;5116844;27;20074;-81
2022/09/16 10:41:44;;;;;;;11.05;1.88;;;15.90;99.90;;;;;;5134930;27;20074;-80
2022/09/16 10:44:33;;;;;;;14.55;2.55;;;15.70;99.90;;;;;;5116160;27;20043;-80
2022/09/16 10:47:08;;;;;;;13.05;2.60;;;15.70;99.90;;;;;;5115938;27;20512;-81
2022/09/16 10:49:38;;;;;;;8.85;1.88;;;15.70;99.90;;;;;;5116464;27;20039;-83
2022/09/16 10:52:13;;;;;;;13.85;1.67;;;15.80;99.90;;;;;;5116053;27;20043;-82
2022/09/16 10:54:38;;;;;;;10.43;2.08;;;15.90;99.90;;;;;;5116388;27;20561;-79
2022/09/16 10:57:31;;;;;;;12.65;1.83;;;16.00;99.90;;;;;;5115941;27;20193;-83
2022/09/16 11:00:04;;;;;;;10.30;2.05;;;16.00;99.90;;;;;;5116353;28;20047;-81
2022/09/16 11:02:48;;;;;;;7.20;1.90;;;16.10;99.90;;;;;;5134711;27;20044;-81
2022/09/16 11:05:26;;;;;;;12.68;1.52;;;16.20;99.90;;;;;;5115997;28;20051;-81
2022/09/16 11:08:23;;;;;;;10.68;2.25;;;16.30;99.90;;;;;;5115787;28;20065;-81
2022/09/16 11:11:02;;;;;;;12.95;2.08;;;16.40;99.90;;;;;;5116123;28;20043;-84
2022/09/16 11:14:04;;;;;;;15.93;1.80;;;16.40;99.90;;;;;;5116084;28;20074;-82
2022/09/16 11:16:39;;;;;;;14.10;2.95;;;16.60;99.90;;;;;;5116067;28;20069;-83
2022/09/16 11:19:07;;;;;;;12.63;1.95;;;16.60;99.90;;;;;;5115861;28;20046;-81
2022/09/16 11:21:47;;;;;;;15.20;2.40;;;16.50;99.90;;;;;;5115984;28;20117;-81
2022/09/16 11:24:42;;;;;;;15.80;2.30;;;16.50;99.90;;;;;;5116089;28;20054;-81
2022/09/16 11:27:26;;;;;;;14.38;2.40;;;16.50;99.90;;;;;;5115694;28;20378;-85
2022/09/16 11:30:04;;;;;;;15.15;2.08;;;16.60;99.90;;;;;;5115692;28;20508;-81
2022/09/16 11:32:36;;;;;;;12.50;2.28;;;16.50;99.90;;;;;;5115583;28;20051;-82
2022/09/16 11:35:30;;;;;;;15.40;2.08;;;16.50;99.90;;;;;;5115413;28;20131;-86
2022/09/16 11:38:38;;;;;;;11.80;1.83;;;16.40;99.90;;;;;;5115536;28;20054;-86
2022/09/16 11:41:41;;;;;;;12.10;2.20;;;16.50;99.90;;;;;;5050867;28;20055;-81
2022/09/16 11:44:14;;;;;;;13.15;2.42;;;16.50;99.90;;;;;;5115397;28;20086;-84
2022/09/16 11:46:55;;;;;;;9.25;2.28;;;16.40;99.90;;;;;;5115490;28;20055;-82
2022/09/16 11:49:48;;;;;;;11.20;1.92;;;16.30;99.90;;;;;;5118463;27;20126;-84
2022/09/16 11:52:32;;;;;;;12.68;2.13;;;16.40;99.90;;;;;;5119995;27;20079;-82
2022/09/16 11:55:03;;;;;;;13.70;2.17;;;16.40;99.90;;;;;;5119379;27;20081;-84
2022/09/16 11:57:34;;;;;;;12.40;2.38;;;16.40;99.90;;;;;;5137821;27;20122;-81
2022/09/16 12:00:12;;;;;;;9.45;1.83;;;16.40;99.90;;;;;;5137629;27;20039;-81
2022/09/16 12:02:50;;;;;;;11.95;2.03;;;16.40;99.90;;;;;;5137682;27;20051;-83
2022/09/16 12:05:24;;;;;;;17.17;2.08;;;16.40;99.90;;;;;;5137404;27;20081;-82
2022/09/16 12:08:03;;;;;;;15.48;1.90;;;16.40;99.90;;;;;;5137860;27;20126;-84
2022/09/16 12:10:44;;;;;;;10.85;1.42;;;16.40;99.90;;;;;;5118935;27;20375;-85
2022/09/16 12:13:36;;;;;;;11.25;1.70;;;16.30;99.90;;;;;;5118897;27;20047;-83
2022/09/16 12:16:13;;;;;;;9.50;1.30;;;16.20;99.90;;;;;;5126044;27;20064;-82
2022/09/16 12:18:50;;;;;;;8.20;1.40;;;16.20;99.90;;;;;;5118907;27;20289;-86
2022/09/16 12:21:24;;;;;;;10.23;1.95;;;16.30;99.90;;;;;;5127525;27;20121;-84
2022/09/16 12:24:13;;;;;;;6.07;0.85;;;16.30;99.90;;;;;;5157444;27;20487;-85
2022/09/16 12:26:54;;;;;;;13.73;1.45;;;16.20;99.90;;;;;;5139383;27;20039;-83
2022/09/16 12:29:55;;;;;;;6.22;0.82;;;16.10;99.90;;;;;;5139490;27;20121;-86
2022/09/16 12:32:42;;;;;;;5.03;0.85;;;16.00;99.90;;;;;;5158090;27;20039;-81
2022/09/16 12:35:33;;;;;;;12.52;1.42;;;15.90;99.90;;;;;;5139227;27;20167;-81
2022/09/16 12:37:59;;;;;;;13.27;1.60;;;16.00;99.90;;;;;;5139462;27;20046;-90
2022/09/16 12:40:47;;;;;;;11.40;1.30;;;15.90;99.90;;;;;;5139344;27;20125;-81
2022/09/16 12:43:16;;;;;;;11.55;1.55;;;15.60;99.90;;;;;;5157777;27;20047;-82
2022/09/16 12:46:09;;;;;;;20.15;2.63;;;15.50;99.90;;;;;;5139018;27;20102;-83
2022/09/16 12:48:44;;;;;;;18.75;1.58;;;15.10;99.90;;;;;;5139083;27;20558;-80
2022/09/16 12:51:37;;;;;;;11.90;1.73;;;14.90;99.90;;;;;;5139127;27;20099;-82
2022/09/16 12:54:34;;;;;;;15.05;2.60;;;14.50;99.90;;;;;;5138727;27;20377;-80
2022/09/16 12:57:33;;;;;;;19.13;2.28;;;14.30;99.90;;;;;;5139195;27;20046;-83
2022/09/16 13:00:12;;;;;;;9.10;1.42;;;13.80;99.90;;;;;;5138822;27;20125;-79
2022/09/16 13:02:50;;;;;;;13.02;1.75;;;13.70;99.90;;;;;;5139096;27;20082;-80
2022/09/16 13:05:26;;;;;;;17.38;2.67;;;13.40;99.90;;;;;;5137093;27;20107;-80
2022/09/16 13:07:54;;;;;;;13.45;1.92;;;13.30;99.90;;;;;;5136804;27;20398;-80
2022/09/16 13:10:39;;;;;;;13.82;1.80;;;13.20;99.90;;;;;;5138140;27;20039;-83
2022/09/16 13:13:06;;;;;;;7.97;1.92;;;13.40;99.90;;;;;;5138513;27;20485;-87
2022/09/16 13:15:38;;;;;;;8.43;1.63;;;13.60;99.90;;;;;;5157211;27;20041;-87